Time;durP1;ratioP1;P1;durP2;ratioP2;P2;SDS_P1;SDS_P2;PMS_P1;PMS_P2;Temp;Humidity;BMP_temperature;BMP_pressure;BME280_temperature;BME280_humidity;BME280_pressure;Samples;Min_cycle;Max_cycle;Signal;HPM_P1;HPM_P2
2022/10/18 00:01:23;;;;;;;15.75;6.90;;;;;;;;;;5008249;28;20482;-67
2022/10/18 00:03:49;;;;;;;10.98;6.38;;;;;;;;;;5008942;28;20024;-66
2022/10/18 00:06:14;;;;;;;17.30;6.25;;;;;;;;;;5008280;28;20439;-67
2022/10/18 00:08:39;;;;;;;16.88;7.38;;;;;;;;;;5009688;28;20405;-67
2022/10/18 00:11:06;;;;;;;13.70;6.35;;;;;;;;;;5007979;28;20393;-67
2022/10/18 00:13:31;;;;;;;11.07;6.47;;;;;;;;;;5008508;28;20445;-67
2022/10/18 00:15:59;;;;;;;11.40;6.07;;;;;;;;;;5007778;28;20343;-67
2022/10/18 00:18:26;;;;;;;10.80;5.50;;;;;;;;;;5008028;28;20029;-67
2022/10/18 00:20:58;;;;;;;13.18;5.95;;;;;;;;;;5007748;28;20628;-67
2022/10/18 00:23:24;;;;;;;14.30;5.68;;;;;;;;;;4990235;28;20029;-67
2022/10/18 00:25:58;;;;;;;11.05;5.82;;;;;;;;;;5008099;28;20457;-67
2022/10/18 00:28:23;;;;;;;12.77;6.40;;;;;;;;;;4990478;28;20474;-67
2022/10/18 00:30:48;;;;;;;12.52;5.20;;;;;;;;;;4987897;28;20348;-67
2022/10/18 00:33:14;;;;;;;12.20;5.95;;;;;;;;;;4988007;28;20496;-67
2022/10/18 00:35:39;;;;;;;9.95;5.63;;;;;;;;;;4987708;28;20337;-67
2022/10/18 00:38:04;;;;;;;12.90;5.53;;;;;;;;;;4988027;28;20394;-67
2022/10/18 00:40:30;;;;;;;10.75;5.63;;;;;;;;;;4987750;28;20440;-67
2022/10/18 00:42:55;;;;;;;10.57;5.95;;;;;;;;;;4969881;28;20340;-67
2022/10/18 00:45:22;;;;;;;13.10;5.22;;;;;;;;;;4987624;28;20458;-67
2022/10/18 00:47:51;;;;;;;14.93;6.53;;;;;;;;;;4989878;28;20379;-67
2022/10/18 00:50:16;;;;;;;;;;;;;;;;;;4991633;28;20114;-67
2022/10/18 00:52:50;;;;;;;12.65;5.78;;;;;;;;;;4973599;28;20340;-67
2022/10/18 00:55:15;;;;;;;11.10;5.75;;;;;;;;;;4991983;28;20455;-67
2022/10/18 00:57:42;;;;;;;11.57;5.50;;;;;;;;;;4973684;28;20344;-67
2022/10/18 01:00:08;;;;;;;10.07;5.65;;;;;;;;;;4991897;28;20462;-67
2022/10/18 01:02:36;;;;;;;16.02;5.85;;;;;;;;;;4971724;28;20428;-67
2022/10/18 01:05:01;;;;;;;12.02;5.72;;;;;;;;;;4975509;28;20460;-67
2022/10/18 01:07:30;;;;;;;9.95;5.22;;;;;;;;;;4954366;28;20452;-67
2022/10/18 01:10:14;;;;;;;12.25;5.43;;;;;;;;;;4954343;28;20033;-67
2022/10/18 01:12:52;;;;;;;16.15;5.32;;;;;;;;;;4971873;28;20433;-67
2022/10/18 01:15:19;;;;;;;12.13;5.15;;;;;;;;;;4971797;28;20511;-66
2022/10/18 01:18:05;;;;;;;11.10;5.68;;;;;;;;;;4971640;28;20429;-67
2022/10/18 01:20:36;;;;;;;11.95;6.07;;;;;;;;;;4953689;28;20459;-67
2022/10/18 01:23:06;;;;;;;17.95;5.60;;;;;;;;;;4973274;28;20345;-67
2022/10/18 01:25:32;;;;;;;12.88;5.10;;;;;;;;;;4954371;28;20029;-67
2022/10/18 01:28:19;;;;;;;10.63;5.60;;;;;;;;;;4971307;28;20045;-67
2022/10/18 01:30:52;;;;;;;12.57;5.47;;;;;;;;;;4971508;28;20064;-67
2022/10/18 01:33:26;;;;;;;11.13;5.05;;;;;;;;;;4953200;28;20325;-67
2022/10/18 01:36:13;;;;;;;15.00;5.65;;;;;;;;;;4954045;28;20456;-66
2022/10/18 01:38:40;;;;;;;14.93;6.80;;;;;;;;;;4953537;28;20479;-67
2022/10/18 01:41:06;;;;;;;9.27;4.88;;;;;;;;;;4972576;28;20364;-67
2022/10/18 01:43:33;;;;;;;12.40;5.85;;;;;;;;;;4953461;28;20428;-68
2022/10/18 01:45:59;;;;;;;10.25;5.40;;;;;;;;;;4953416;28;20336;-66
2022/10/18 01:48:24;;;;;;;8.93;5.85;;;;;;;;;;4953180;28;20033;-67
2022/10/18 01:50:51;;;;;;;13.23;5.38;;;;;;;;;;4971087;28;20462;-67
2022/10/18 01:53:28;;;;;;;12.68;6.15;;;;;;;;;;4953403;28;20321;-67
2022/10/18 01:56:13;;;;;;;18.08;6.32;;;;;;;;;;4952974;28;20507;-67
2022/10/18 01:58:45;;;;;;;12.82;6.22;;;;;;;;;;4953242;28;20432;-67
2022/10/18 02:01:18;;;;;;;17.55;8.48;;;;;;;;;;4953119;28;20437;-67
2022/10/18 02:03:45;;;;;;;14.98;6.95;;;;;;;;;;4953172;28;20322;-67
2022/10/18 02:06:26;;;;;;;19.77;9.55;;;;;;;;;;4952977;28;20456;-67
2022/10/18 02:08:56;;;;;;;21.50;9.45;;;;;;;;;;4952969;28;20140;-67
2022/10/18 02:11:22;;;;;;;16.10;8.90;;;;;;;;;;4936700;28;20550;-67
2022/10/18 02:13:54;;;;;;;16.50;8.60;;;;;;;;;;4952989;28;20527;-67
2022/10/18 02:16:51;;;;;;;16.40;8.13;;;;;;;;;;4952834;28;20318;-66
2022/10/18 02:19:23;;;;;;;17.55;8.35;;;;;;;;;;4944396;28;20453;-67
2022/10/18 02:21:49;;;;;;;16.40;6.47;;;;;;;;;;4952381;28;20428;-67
2022/10/18 02:24:15;;;;;;;11.93;6.13;;;;;;;;;;4952776;28;20480;-67
2022/10/18 02:26:40;;;;;;;11.68;5.93;;;;;;;;;;4952282;28;20482;-67
2022/10/18 02:29:07;;;;;;;12.38;6.07;;;;;;;;;;4953034;28;20463;-66
2022/10/18 02:31:42;;;;;;;10.00;5.82;;;;;;;;;;4936377;28;20329;-67
2022/10/18 02:34:13;;;;;;;12.70;7.30;;;;;;;;;;4952520;28;20651;-67
2022/10/18 02:36:45;;;;;;;13.20;6.10;;;;;;;;;;4970652;28;20420;-66
2022/10/18 02:39:17;;;;;;;13.93;5.97;;;;;;;;;;4953293;28;20344;-67
2022/10/18 02:41:42;;;;;;;10.35;6.43;;;;;;;;;;4952238;28;20053;-66
2022/10/18 02:44:08;;;;;;;13.13;6.45;;;;;;;;;;4970007;28;20519;-67
2022/10/18 02:46:34;;;;;;;12.82;6.43;;;;;;;;;;4971202;28;20329;-67
2022/10/18 02:48:59;;;;;;;13.82;6.13;;;;;;;;;;4969949;28;20360;-67
2022/10/18 02:51:25;;;;;;;12.63;5.18;;;;;;;;;;4970892;28;20685;-67
2022/10/18 02:53:50;;;;;;;11.02;5.78;;;;;;;;;;4969814;28;20440;-67
2022/10/18 02:56:16;;;;;;;11.70;5.97;;;;;;;;;;4952235;28;20448;-67
2022/10/18 02:58:41;;;;;;;10.95;6.35;;;;;;;;;;4971819;28;20088;-67
2022/10/18 03:01:06;;;;;;;14.13;6.70;;;;;;;;;;4970248;28;20399;-67
2022/10/18 03:03:32;;;;;;;17.35;7.40;;;;;;;;;;4969983;28;20045;-67
2022/10/18 03:06:00;;;;;;;15.18;5.65;;;;;;;;;;4951654;28;20343;-67
2022/10/18 03:08:25;;;;;;;9.93;5.50;;;;;;;;;;4970000;28;20483;-67
2022/10/18 03:10:51;;;;;;;15.80;6.97;;;;;;;;;;4969527;28;20448;-67
2022/10/18 03:13:16;;;;;;;8.18;5.47;;;;;;;;;;4951742;28;20441;-67
2022/10/18 03:15:42;;;;;;;12.20;5.80;;;;;;;;;;4951686;28;20419;-67
2022/10/18 03:18:07;;;;;;;12.02;5.80;;;;;;;;;;4969513;28;20344;-67
2022/10/18 03:20:34;;;;;;;13.90;6.80;;;;;;;;;;4951559;28;20462;-67
2022/10/18 03:22:59;;;;;;;12.55;5.95;;;;;;;;;;4971108;28;20447;-67
2022/10/18 03:25:24;;;;;;;11.95;6.03;;;;;;;;;;4969690;28;20422;-67
2022/10/18 03:27:49;;;;;;;10.23;5.53;;;;;;;;;;4981056;28;20432;-67
2022/10/18 03:30:15;;;;;;;13.85;5.80;;;;;;;;;;4987897;28;20452;-67
2022/10/18 03:32:40;;;;;;;13.82;5.40;;;;;;;;;;4988581;28;20376;-67
2022/10/18 03:35:06;;;;;;;8.93;5.25;;;;;;;;;;4988875;28;20498;-67
2022/10/18 03:37:32;;;;;;;13.18;6.53;;;;;;;;;;4988882;28;20100;-67
2022/10/18 03:39:57;;;;;;;16.98;6.35;;;;;;;;;;4970859;28;20055;-67
2022/10/18 03:42:23;;;;;;;13.32;5.38;;;;;;;;;;4988676;28;20075;-67
2022/10/18 03:44:48;;;;;;;9.07;5.35;;;;;;;;;;4988689;28;20446;-67
2022/10/18 03:47:14;;;;;;;11.95;5.80;;;;;;;;;;4988549;28;20436;-67
2022/10/18 03:49:39;;;;;;;22.40;5.80;;;;;;;;;;4970684;28;20447;-67
2022/10/18 03:52:04;;;;;;;9.85;5.75;;;;;;;;;;4990634;28;20041;-67
2022/10/18 03:54:30;;;;;;;11.20;5.38;;;;;;;;;;4989173;28;20417;-67
2022/10/18 03:56:55;;;;;;;12.77;5.90;;;;;;;;;;4989489;28;20356;-67
2022/10/18 03:59:21;;;;;;;13.38;4.88;;;;;;;;;;4988589;28;20396;-67
2022/10/18 04:01:47;;;;;;;9.20;4.72;;;;;;;;;;4988707;28;20428;-67
2022/10/18 04:04:12;;;;;;;9.05;4.95;;;;;;;;;;4988743;28;20320;-67
2022/10/18 04:06:37;;;;;;;12.77;5.07;;;;;;;;;;4988112;28;20090;-67
2022/10/18 04:09:03;;;;;;;8.98;5.25;;;;;;;;;;4988219;28;20415;-67
2022/10/18 04:11:28;;;;;;;7.65;4.78;;;;;;;;;;4988764;28;20478;-67
2022/10/18 04:13:53;;;;;;;8.82;4.90;;;;;;;;;;4988147;28;20352;-67
2022/10/18 04:16:19;;;;;;;19.80;5.70;;;;;;;;;;4988455;28;20423;-67
2022/10/18 04:18:44;;;;;;;8.85;5.05;;;;;;;;;;4988046;28;20481;-67
2022/10/18 04:21:09;;;;;;;10.15;5.28;;;;;;;;;;4988180;28;20025;-67
2022/10/18 04:23:35;;;;;;;10.68;5.38;;;;;;;;;;4988020;28;20348;-67
2022/10/18 04:26:00;;;;;;;8.57;5.70;;;;;;;;;;4987980;28;20348;-67
2022/10/18 04:28:25;;;;;;;11.50;5.05;;;;;;;;;;4971519;28;20348;-67
2022/10/18 04:30:51;;;;;;;13.27;5.95;;;;;;;;;;4968472;28;20461;-66
2022/10/18 04:33:17;;;;;;;9.15;4.72;;;;;;;;;;4950648;28;20041;-67
2022/10/18 04:35:45;;;;;;;14.00;5.13;;;;;;;;;;4968053;28;20121;-67
2022/10/18 04:38:10;;;;;;;10.85;5.25;;;;;;;;;;4969065;28;20419;-67
2022/10/18 04:40:35;;;;;;;15.10;4.72;;;;;;;;;;4968117;28;20422;-67
2022/10/18 04:43:01;;;;;;;9.35;5.00;;;;;;;;;;4968587;28;20454;-67
2022/10/18 04:45:26;;;;;;;9.80;4.35;;;;;;;;;;4968281;28;20429;-67
2022/10/18 04:47:51;;;;;;;10.93;4.47;;;;;;;;;;4968276;28;20345;-67
2022/10/18 04:50:17;;;;;;;7.70;5.07;;;;;;;;;;4968441;28;20459;-67
2022/10/18 04:52:42;;;;;;;10.77;4.70;;;;;;;;;;4967923;28;20456;-67
2022/10/18 04:55:07;;;;;;;10.60;5.00;;;;;;;;;;4968074;28;20056;-67
2022/10/18 04:57:33;;;;;;;14.45;4.75;;;;;;;;;;4968950;28;20499;-67
2022/10/18 04:59:58;;;;;;;11.35;5.55;;;;;;;;;;4968788;28;20624;-67
2022/10/18 05:02:23;;;;;;;9.70;5.05;;;;;;;;;;4968072;28;20448;-67
2022/10/18 05:04:49;;;;;;;11.05;4.15;;;;;;;;;;4967866;28;20333;-67
2022/10/18 05:07:16;;;;;;;15.98;4.90;;;;;;;;;;4967952;28;20457;-67
2022/10/18 05:09:41;;;;;;;11.60;4.63;;;;;;;;;;4966244;28;20384;-67
2022/10/18 05:12:06;;;;;;;11.52;4.63;;;;;;;;;;4967727;28;20463;-67
2022/10/18 05:14:31;;;;;;;38.60;5.72;;;;;;;;;;4968370;28;20396;-67
2022/10/18 05:16:57;;;;;;;15.82;5.70;;;;;;;;;;4967900;28;20110;-67
2022/10/18 05:19:22;;;;;;;14.55;5.80;;;;;;;;;;4969787;28;20372;-67
2022/10/18 05:21:47;;;;;;;11.43;5.50;;;;;;;;;;4967735;28;20436;-67
2022/10/18 05:24:13;;;;;;;9.05;5.03;;;;;;;;;;4967821;28;20352;-67
2022/10/18 05:26:38;;;;;;;9.73;6.00;;;;;;;;;;4967882;28;20476;-67
2022/10/18 05:29:03;;;;;;;11.00;6.10;;;;;;;;;;4967716;28;20091;-67
2022/10/18 05:31:29;;;;;;;14.57;5.63;;;;;;;;;;4967670;28;20521;-67
2022/10/18 05:33:54;;;;;;;11.48;5.13;;;;;;;;;;4949984;28;20314;-67
2022/10/18 05:36:19;;;;;;;9.25;5.25;;;;;;;;;;4951760;28;20436;-67
2022/10/18 05:38:46;;;;;;;13.77;5.05;;;;;;;;;;4971243;28;20076;-67
2022/10/18 05:41:12;;;;;;;19.70;5.82;;;;;;;;;;4971348;28;20387;-67
2022/10/18 05:43:38;;;;;;;9.23;4.97;;;;;;;;;;4972872;28;20474;-67
2022/10/18 05:46:04;;;;;;;11.27;4.45;;;;;;;;;;4971115;28;20033;-67
2022/10/18 05:48:29;;;;;;;12.27;5.72;;;;;;;;;;4971056;28;20466;-67
2022/10/18 05:50:59;;;;;;;12.88;5.35;;;;;;;;;;4971145;28;20056;-67
2022/10/18 05:53:24;;;;;;;8.43;5.00;;;;;;;;;;4953575;28;20436;-67
2022/10/18 05:55:49;;;;;;;11.70;5.88;;;;;;;;;;4973233;28;20421;-67
2022/10/18 05:58:15;;;;;;;12.10;5.57;;;;;;;;;;4970763;28;20445;-67
2022/10/18 06:00:40;;;;;;;13.30;6.45;;;;;;;;;;4970876;28;20436;-67
2022/10/18 06:03:07;;;;;;;14.38;5.35;;;;;;;;;;4970871;28;20391;-67
2022/10/18 06:05:32;;;;;;;12.25;5.28;;;;;;;;;;4970661;28;20449;-67
2022/10/18 06:07:58;;;;;;;10.82;5.85;;;;;;;;;;4952823;28;20392;-67
2022/10/18 06:10:23;;;;;;;15.48;5.78;;;;;;;;;;4971479;28;20400;-67
2022/10/18 06:12:48;;;;;;;10.32;5.70;;;;;;;;;;4972973;28;20428;-67
2022/10/18 06:15:14;;;;;;;9.23;5.30;;;;;;;;;;4971189;28;20582;-67
2022/10/18 06:17:39;;;;;;;11.30;5.32;;;;;;;;;;4970545;28;20436;-67
2022/10/18 06:20:06;;;;;;;17.40;6.30;;;;;;;;;;4970491;28;20056;-67
2022/10/18 06:22:31;;;;;;;8.00;4.97;;;;;;;;;;4971422;28;20329;-67
2022/10/18 06:24:56;;;;;;;9.18;5.18;;;;;;;;;;4971884;28;20348;-67
2022/10/18 06:27:22;;;;;;;14.57;5.53;;;;;;;;;;4960658;28;20371;-67
2022/10/18 06:29:47;;;;;;;10.32;5.55;;;;;;;;;;4990804;28;20447;-67
2022/10/18 06:32:12;;;;;;;12.40;4.95;;;;;;;;;;4989896;28;20531;-67
2022/10/18 06:34:38;;;;;;;7.78;4.43;;;;;;;;;;4990016;28;20436;-67
2022/10/18 06:37:03;;;;;;;8.65;5.00;;;;;;;;;;4989995;28;20033;-67
2022/10/18 06:39:28;;;;;;;9.88;5.13;;;;;;;;;;4991351;28;20328;-67
2022/10/18 06:41:54;;;;;;;12.05;5.85;;;;;;;;;;4989808;28;20412;-67
2022/10/18 06:44:20;;;;;;;9.27;5.53;;;;;;;;;;4989761;28;20519;-67
2022/10/18 06:46:46;;;;;;;10.00;4.97;;;;;;;;;;4971409;28;20504;-67
2022/10/18 06:49:13;;;;;;;9.25;5.10;;;;;;;;;;4972765;28;20025;-67
2022/10/18 06:51:38;;;;;;;11.50;5.22;;;;;;;;;;4989545;28;20390;-67
2022/10/18 06:54:04;;;;;;;14.90;5.45;;;;;;;;;;4989650;28;20382;-67
2022/10/18 06:56:29;;;;;;;9.18;5.15;;;;;;;;;;4989638;28;20421;-67
2022/10/18 06:58:54;;;;;;;11.15;5.07;;;;;;;;;;4971377;28;20507;-67
2022/10/18 07:01:20;;;;;;;9.98;5.47;;;;;;;;;;4971486;28;20047;-67
2022/10/18 07:03:47;;;;;;;14.38;4.88;;;;;;;;;;4990721;28;20033;-67
2022/10/18 07:06:15;;;;;;;8.05;5.10;;;;;;;;;;4990400;28;20486;-67
2022/10/18 07:08:40;;;;;;;13.13;4.45;;;;;;;;;;4989334;28;20423;-67
2022/10/18 07:11:06;;;;;;;8.30;4.72;;;;;;;;;;4989115;28;20427;-67
2022/10/18 07:13:32;;;;;;;7.65;4.63;;;;;;;;;;4971622;28;20413;-67
2022/10/18 07:16:11;;;;;;;18.33;5.97;;;;;;;;;;4989133;28;20345;-67
2022/10/18 07:18:39;;;;;;;11.80;4.57;;;;;;;;;;4989053;28;20444;-67
2022/10/18 07:21:06;;;;;;;11.13;6.07;;;;;;;;;;4971342;28;20422;-67
2022/10/18 07:23:33;;;;;;;8.18;4.53;;;;;;;;;;4990051;28;20317;-67
2022/10/18 07:25:58;;;;;;;7.05;4.22;;;;;;;;;;4988931;28;20373;-67
2022/10/18 07:28:24;;;;;;;7.18;4.93;;;;;;;;;;4972721;28;20075;-67
2022/10/18 07:30:49;;;;;;;6.68;4.28;;;;;;;;;;4971305;28;20123;-67
2022/10/18 07:33:14;;;;;;;7.10;4.50;;;;;;;;;;4969274;28;20541;-67
2022/10/18 07:35:39;;;;;;;9.10;5.07;;;;;;;;;;4970190;28;20017;-66
2022/10/18 07:38:05;;;;;;;9.25;4.82;;;;;;;;;;4969026;28;20436;-67
2022/10/18 07:40:30;;;;;;;10.07;4.60;;;;;;;;;;4969083;28;20456;-66
2022/10/18 07:42:55;;;;;;;12.90;4.63;;;;;;;;;;4968891;28;20423;-66
2022/10/18 07:45:21;;;;;;;8.38;4.45;;;;;;;;;;4969288;28;20488;-66
2022/10/18 07:47:46;;;;;;;11.15;5.03;;;;;;;;;;4969061;28;20582;-66
2022/10/18 07:50:11;;;;;;;7.10;4.10;;;;;;;;;;4970253;28;20448;-67
2022/10/18 07:52:37;;;;;;;7.22;4.40;;;;;;;;;;4969167;28;20428;-67
2022/10/18 07:55:02;;;;;;;6.40;3.97;;;;;;;;;;4969119;28;20306;-67
2022/10/18 07:57:28;;;;;;;8.63;3.95;;;;;;;;;;4969548;28;20418;-67
2022/10/18 07:59:55;;;;;;;8.77;4.45;;;;;;;;;;4967909;28;20457;-67
2022/10/18 08:02:22;;;;;;;8.43;3.45;;;;;;;;;;4968761;28;21206;-66
2022/10/18 08:04:48;;;;;;;9.52;3.83;;;;;;;;;;4968744;28;20419;-67
2022/10/18 08:07:13;;;;;;;8.40;3.53;;;;;;;;;;4968748;28;20030;-66
2022/10/18 08:09:38;;;;;;;7.05;3.83;;;;;;;;;;4968498;28;20021;-67
2022/10/18 08:12:04;;;;;;;9.02;4.03;;;;;;;;;;4968358;28;20423;-67
2022/10/18 08:14:29;;;;;;;7.70;3.22;;;;;;;;;;4969563;28;20431;-66
2022/10/18 08:16:55;;;;;;;8.27;4.00;;;;;;;;;;4968478;28;20391;-66
2022/10/18 08:19:20;;;;;;;9.00;3.53;;;;;;;;;;4968946;28;20520;-66
2022/10/18 08:21:45;;;;;;;14.57;4.50;;;;;;;;;;4968292;28;20460;-66
2022/10/18 08:24:11;;;;;;;6.40;3.55;;;;;;;;;;4950653;28;20456;-67
2022/10/18 08:26:36;;;;;;;6.32;3.63;;;;;;;;;;4967875;28;20190;-66
2022/10/18 08:29:02;;;;;;;6.18;3.63;;;;;;;;;;4968435;28;20374;-66
2022/10/18 08:31:27;;;;;;;5.70;3.45;;;;;;;;;;4969961;28;20301;-67
2022/10/18 08:33:55;;;;;;;7.82;3.50;;;;;;;;;;4969224;28;20038;-67
2022/10/18 08:36:20;;;;;;;6.85;3.47;;;;;;;;;;4968460;28;20511;-67
2022/10/18 08:38:45;;;;;;;7.57;4.13;;;;;;;;;;4950514;28;20390;-66
2022/10/18 08:41:36;;;;;;;6.35;3.40;;;;;;;;;;4968354;28;20437;-66
2022/10/18 08:44:23;;;;;;;8.98;3.55;;;;;;;;;;4968323;28;20029;-66
2022/10/18 08:46:58;;;;;;;5.60;3.22;;;;;;;;;;4951461;28;20503;-66
2022/10/18 08:49:39;;;;;;;5.25;3.17;;;;;;;;;;4950398;28;20022;-66
2022/10/18 08:52:14;;;;;;;6.18;3.17;;;;;;;;;;4968071;28;20053;-66
2022/10/18 08:54:51;;;;;;;4.03;3.00;;;;;;;;;;4942240;28;20318;-66
2022/10/18 08:57:17;;;;;;;3.80;2.90;;;;;;;;;;4950189;28;20340;-66
2022/10/18 08:59:43;;;;;;;7.28;3.65;;;;;;;;;;4950185;28;20344;-67
2022/10/18 09:02:48;;;;;;;6.28;3.38;;;;;;;;;;4968109;28;20372;-66
2022/10/18 09:05:24;;;;;;;4.28;2.70;;;;;;;;;;4950430;28;20029;-66
2022/10/18 09:08:08;;;;;;;5.40;3.28;;;;;;;;;;4951047;28;20447;-66
2022/10/18 09:10:44;;;;;;;8.43;4.72;;;;;;;;;;4970346;28;20393;-66
2022/10/18 09:13:19;;;;;;;8.15;3.15;;;;;;;;;;4954042;28;20452;-66
2022/10/18 09:16:03;;;;;;;4.57;2.95;;;;;;;;;;4972640;28;20463;-66
2022/10/18 09:18:56;;;;;;;4.72;3.08;;;;;;;;;;4954197;28;20436;-66
2022/10/18 09:21:42;;;;;;;6.20;3.38;;;;;;;;;;4953721;28;20085;-66
2022/10/18 09:24:12;;;;;;;6.95;3.08;;;;;;;;;;4971647;28;20424;-67
2022/10/18 09:26:44;;;;;;;4.53;3.03;;;;;;;;;;4972927;28;20505;-67
2022/10/18 09:29:43;;;;;;;7.50;2.88;;;;;;;;;;4969969;28;20419;-66
2022/10/18 09:32:38;;;;;;;5.03;2.92;;;;;;;;;;4987938;28;20036;-66
2022/10/18 09:35:12;;;;;;;4.03;2.90;;;;;;;;;;4974240;28;20025;-66
2022/10/18 09:37:38;;;;;;;4.15;2.65;;;;;;;;;;4972990;28;20321;-68
2022/10/18 09:40:26;;;;;;;4.45;2.95;;;;;;;;;;4991176;28;20398;-66
2022/10/18 09:42:58;;;;;;;6.85;3.30;;;;;;;;;;4972852;28;20450;-66
2022/10/18 09:45:23;;;;;;;6.78;3.03;;;;;;;;;;4972770;28;20470;-66
2022/10/18 09:47:54;;;;;;;5.57;2.95;;;;;;;;;;4990880;28;20344;-66
2022/10/18 09:50:51;;;;;;;4.72;3.10;;;;;;;;;;4990714;28;20435;-66
2022/10/18 09:53:46;;;;;;;5.75;3.15;;;;;;;;;;4972671;28;20533;-66
2022/10/18 09:56:23;;;;;;;4.10;2.80;;;;;;;;;;4981357;28;20529;-66
2022/10/18 09:58:50;;;;;;;5.72;3.05;;;;;;;;;;4972717;28;20029;-66
2022/10/18 10:01:19;;;;;;;5.78;2.58;;;;;;;;;;4990602;28;20352;-66
2022/10/18 10:03:44;;;;;;;7.68;2.88;;;;;;;;;;4972512;28;20293;-66
2022/10/18 10:06:15;;;;;;;4.57;3.00;;;;;;;;;;4972599;28;20340;-69
2022/10/18 10:08:43;;;;;;;4.70;2.83;;;;;;;;;;4990384;28;20344;-67
2022/10/18 10:11:39;;;;;;;5.25;3.30;;;;;;;;;;4989376;28;20332;-66
2022/10/18 10:14:08;;;;;;;4.07;2.47;;;;;;;;;;4990662;28;20443;-66
2022/10/18 10:16:42;;;;;;;5.68;3.00;;;;;;;;;;4990272;28;20339;-66
2022/10/18 10:19:15;;;;;;;4.30;2.65;;;;;;;;;;4972158;28;20436;-66
2022/10/18 10:21:41;;;;;;;5.22;2.63;;;;;;;;;;4971820;28;20466;-66
2022/10/18 10:24:18;;;;;;;5.05;2.95;;;;;;;;;;4990459;28;20436;-66
2022/10/18 10:26:43;;;;;;;7.53;3.05;;;;;;;;;;4987338;28;20432;-66
2022/10/18 10:29:36;;;;;;;6.25;3.10;;;;;;;;;;4952596;28;20510;-66
2022/10/18 10:32:03;;;;;;;5.22;3.15;;;;;;;;;;4970169;28;20119;-66
2022/10/18 10:34:28;;;;;;;8.63;3.40;;;;;;;;;;4970272;28;20361;-66
2022/10/18 10:36:54;;;;;;;7.20;3.08;;;;;;;;;;4952277;28;20033;-66
2022/10/18 10:39:21;;;;;;;2.97;1.92;;;;;;;;;;4970152;28;20044;-66
2022/10/18 10:41:48;;;;;;;5.97;3.22;;;;;;;;;;4970194;28;20444;-66
2022/10/18 10:44:22;;;;;;;6.22;3.10;;;;;;;;;;4952252;28;20376;-67
2022/10/18 10:46:48;;;;;;;9.05;3.08;;;;;;;;;;4969869;28;20452;-66
2022/10/18 10:49:25;;;;;;;5.70;2.55;;;;;;;;;;4970021;28;20108;-67
2022/10/18 10:52:17;;;;;;;3.80;2.42;;;;;;;;;;4970260;28;20471;-66
2022/10/18 10:54:43;;;;;;;6.57;2.70;;;;;;;;;;4970008;28;20033;-66
2022/10/18 10:57:11;;;;;;;5.22;3.00;;;;;;;;;;4952072;28;20037;-66
2022/10/18 10:59:46;;;;;;;5.15;2.72;;;;;;;;;;4969753;28;20368;-66
2022/10/18 11:02:15;;;;;;;6.28;3.15;;;;;;;;;;4969732;28;20462;-66
2022/10/18 11:04:41;;;;;;;5.00;2.55;;;;;;;;;;4969649;28;20322;-66
2022/10/18 11:07:26;;;;;;;5.25;2.67;;;;;;;;;;4952613;28;20453;-66
2022/10/18 11:10:00;;;;;;;4.82;2.97;;;;;;;;;;4969601;28;20356;-67
2022/10/18 11:12:32;;;;;;;3.95;2.53;;;;;;;;;;4951530;28;20048;-66
2022/10/18 11:15:08;;;;;;;6.63;2.70;;;;;;;;;;4971026;28;20400;-66
2022/10/18 11:17:56;;;;;;;5.25;3.10;;;;;;;;;;4952026;28;20033;-66
2022/10/18 11:20:40;;;;;;;4.57;2.50;;;;;;;;;;4952446;28;20337;-66
2022/10/18 11:23:09;;;;;;;4.65;2.42;;;;;;;;;;4951544;28;20470;-66
2022/10/18 11:25:54;;;;;;;;;;;;;;;;;;4969571;28;20033;-66
2022/10/18 11:28:42;;;;;;;4.43;2.90;;;;;;;;;;4969162;28;20405;-67
2022/10/18 11:31:17;;;;;;;3.63;2.45;;;;;;;;;;4938636;28;20452;-66
2022/10/18 11:34:06;;;;;;;3.03;1.98;;;;;;;;;;4969689;28;20379;-66
2022/10/18 11:36:50;;;;;;;4.35;2.25;;;;;;;;;;4969710;28;20653;-67
2022/10/18 11:39:25;;;;;;;4.10;2.22;;;;;;;;;;4969464;28;20399;-66
2022/10/18 11:41:54;;;;;;;3.88;2.40;;;;;;;;;;4951228;28;20332;-67
2022/10/18 11:44:37;;;;;;;9.15;2.45;;;;;;;;;;4951430;28;20463;-66
2022/10/18 11:47:23;;;;;;;4.93;2.20;;;;;;;;;;4951207;28;20033;-66
2022/10/18 11:49:58;;;;;;;4.35;2.28;;;;;;;;;;4952089;28;20336;-67
2022/10/18 11:52:59;;;;;;;3.35;2.05;;;;;;;;;;4969214;28;20405;-66
2022/10/18 11:55:31;;;;;;;5.85;2.60;;;;;;;;;;4968848;28;20322;-67
2022/10/18 11:58:33;;;;;;;4.70;2.50;;;;;;;;;;4969044;28;20065;-67
2022/10/18 12:01:10;;;;;;;4.70;2.10;;;;;;;;;;4968766;28;20198;-66
2022/10/18 12:03:48;;;;;;;5.32;2.53;;;;;;;;;;4969763;28;20396;-66
2022/10/18 12:06:17;;;;;;;4.23;2.20;;;;;;;;;;4969348;28;20499;-66
2022/10/18 12:08:48;;;;;;;3.78;2.15;;;;;;;;;;4951151;28;20092;-67
2022/10/18 12:11:22;;;;;;;3.80;2.58;;;;;;;;;;4951303;28;20459;-66
2022/10/18 12:14:27;;;;;;;3.97;2.47;;;;;;;;;;4968847;28;20463;-66
2022/10/18 12:16:53;;;;;;;4.70;2.65;;;;;;;;;;4953030;28;20568;-67
2022/10/18 12:19:25;;;;;;;4.35;2.10;;;;;;;;;;4951032;28;20459;-67
2022/10/18 12:21:50;;;;;;;5.93;2.42;;;;;;;;;;4951064;28;20511;-67
2022/10/18 12:24:19;;;;;;;5.63;2.50;;;;;;;;;;4950898;28;20395;-66
2022/10/18 12:26:47;;;;;;;5.28;2.53;;;;;;;;;;4950701;28;20326;-66
2022/10/18 12:29:30;;;;;;;5.10;2.27;;;;;;;;;;4951032;28;20429;-66
2022/10/18 12:32:04;;;;;;;4.38;2.10;;;;;;;;;;4950528;28;20287;-67
2022/10/18 12:34:34;;;;;;;3.85;2.30;;;;;;;;;;4950906;28;20128;-67
2022/10/18 12:37:08;;;;;;;5.38;2.70;;;;;;;;;;4950869;28;20059;-67
2022/10/18 12:39:42;;;;;;;4.75;2.47;;;;;;;;;;4968634;28;20411;-67
2022/10/18 12:42:26;;;;;;;4.80;2.38;;;;;;;;;;4968218;28;20052;-66
2022/10/18 12:45:13;;;;;;;5.38;2.17;;;;;;;;;;4967814;28;20416;-67
2022/10/18 12:47:39;;;;;;;4.13;2.40;;;;;;;;;;4950687;28;20348;-66
2022/10/18 12:50:22;;;;;;;4.15;2.40;;;;;;;;;;4968101;28;20057;-66
2022/10/18 12:53:02;;;;;;;4.90;2.40;;;;;;;;;;4968114;28;20486;-67
2022/10/18 12:55:38;;;;;;;5.82;3.28;;;;;;;;;;4950662;28;20329;-66
2022/10/18 12:58:21;;;;;;;6.85;2.65;;;;;;;;;;4968187;28;20429;-66
2022/10/18 13:00:46;;;;;;;6.20;3.00;;;;;;;;;;4968547;28;20329;-67
2022/10/18 13:03:18;;;;;;;6.85;2.40;;;;;;;;;;4968013;28;20119;-66
2022/10/18 13:05:46;;;;;;;3.70;2.75;;;;;;;;;;4970588;28;20448;-66
2022/10/18 13:08:26;;;;;;;5.30;2.25;;;;;;;;;;4970598;28;20455;-66
2022/10/18 13:11:07;;;;;;;7.97;2.50;;;;;;;;;;4969055;28;20490;-70
2022/10/18 13:13:54;;;;;;;8.95;2.63;;;;;;;;;;4967817;28;20535;-66
2022/10/18 13:16:19;;;;;;;5.60;2.65;;;;;;;;;;4968473;28;20108;-67
2022/10/18 13:19:17;;;;;;;6.20;2.92;;;;;;;;;;4970078;28;20578;-66
2022/10/18 13:21:51;;;;;;;3.72;2.10;;;;;;;;;;4959954;28;20476;-67
2022/10/18 13:24:39;;;;;;;5.70;2.67;;;;;;;;;;4967826;28;20437;-66
2022/10/18 13:27:33;;;;;;;4.60;2.53;;;;;;;;;;4954844;28;20095;-66
2022/10/18 13:30:17;;;;;;;3.47;2.25;;;;;;;;;;4988102;28;20025;-66
2022/10/18 13:32:53;;;;;;;3.63;2.40;;;;;;;;;;4987740;28;20440;-66
2022/10/18 13:35:37;;;;;;;5.90;2.20;;;;;;;;;;4969421;28;20552;-66
2022/10/18 13:38:04;;;;;;;5.75;2.80;;;;;;;;;;4987672;28;20398;-67
2022/10/18 13:40:29;;;;;;;3.40;2.17;;;;;;;;;;4969559;28;20411;-66
2022/10/18 13:42:54;;;;;;;4.32;2.60;;;;;;;;;;4988386;28;20339;-67
2022/10/18 13:45:32;;;;;;;4.82;2.55;;;;;;;;;;4987386;28;20440;-66
2022/10/18 13:48:28;;;;;;;5.78;2.70;;;;;;;;;;4987394;28;20436;-67
2022/10/18 13:51:02;;;;;;;3.38;2.42;;;;;;;;;;4987512;28;20059;-66
2022/10/18 13:53:47;;;;;;;4.32;2.45;;;;;;;;;;4987403;28;20509;-66
2022/10/18 13:56:15;;;;;;;3.17;2.60;;;;;;;;;;4987187;28;20458;-66
2022/10/18 13:59:05;;;;;;;4.13;2.72;;;;;;;;;;4991087;28;20395;-66
2022/10/18 14:02:03;;;;;;;4.15;2.40;;;;;;;;;;4991863;28;20533;-66
2022/10/18 14:04:41;;;;;;;2.95;2.05;;;;;;;;;;4991978;28;20347;-66
2022/10/18 14:07:07;;;;;;;5.93;2.40;;;;;;;;;;4991772;28;20426;-66
2022/10/18 14:09:47;;;;;;;5.35;2.90;;;;;;;;;;4991779;28;20447;-66
2022/10/18 14:12:24;;;;;;;3.97;2.65;;;;;;;;;;4972494;28;20466;-66
2022/10/18 14:15:01;;;;;;;5.90;2.97;;;;;;;;;;4990310;28;20446;-66
2022/10/18 14:17:41;;;;;;;4.35;2.28;;;;;;;;;;4990280;28;20353;-67
2022/10/18 14:20:20;;;;;;;4.40;2.40;;;;;;;;;;4990792;28;20032;-66
2022/10/18 14:23:00;;;;;;;;;;;;;;;;;;4973038;28;20052;-66
2022/10/18 14:25:36;;;;;;;5.75;2.63;;;;;;;;;;4990285;28;20335;-66
2022/10/18 14:28:11;;;;;;;2.60;1.92;;;;;;;;;;4978342;28;20461;-66
2022/10/18 14:30:51;;;;;;;4.45;2.85;;;;;;;;;;4971985;28;20452;-66
2022/10/18 14:33:34;;;;;;;5.07;2.88;;;;;;;;;;4953507;28;20511;-66
2022/10/18 14:36:06;;;;;;;6.13;2.88;;;;;;;;;;4952834;28;20029;-66
2022/10/18 14:38:34;;;;;;;4.97;2.28;;;;;;;;;;4970428;28;20445;-66
2022/10/18 14:41:04;;;;;;;5.35;2.92;;;;;;;;;;4970136;28;20368;-66
2022/10/18 14:43:30;;;;;;;3.75;2.17;;;;;;;;;;4970609;28;20043;-66
2022/10/18 14:46:07;;;;;;;4.65;2.03;;;;;;;;;;4970025;28;20033;-66
2022/10/18 14:48:32;;;;;;;3.40;2.33;;;;;;;;;;4954208;28;20415;-66
2022/10/18 14:50:59;;;;;;;5.03;2.38;;;;;;;;;;4952179;28;20431;-66
2022/10/18 14:53:29;;;;;;;5.70;2.78;;;;;;;;;;4952396;28;20464;-66
2022/10/18 14:55:59;;;;;;;3.50;2.38;;;;;;;;;;4969884;28;20494;-66
2022/10/18 14:58:25;;;;;;;4.10;2.55;;;;;;;;;;4952867;28;20467;-66
2022/10/18 15:00:50;;;;;;;3.55;2.50;;;;;;;;;;4969837;28;20340;-66